Metar z pełnej godziny Komunikat METAR ze strony awiacja.imgw.pl Metar G00 EPWA METAR EPWA 230700Z 27010KT 9999 FEW020 06/00 Q1019 NOSIG=